Accueil
METAR-TAF:

METAR-TAF

Aéroports :

Aéroport de Deauville-Normandie

Deauville, France

latitude: 49-21-55N, longitude: 000-09-16E, altitude: 146 m

Observation

Le bulletin a été fait il y a 21 minutes, à 03:30 UTC
Vent 1 kt de est
Température 8°C
Humidité 100%
Pression 1027 hPa
Visibilité: 0700 m
bancs de brouillard

METAR: LFRG 120330Z AUTO 09001KT 2000 0700 R30/P2000 BCFG NSC 08/08 Q1027

Heure: 05:51 (03:51 UTC)

Prévision

Le bulletin a été fait il y a 13 heures et 51 minutes, à 14:00 UTC
Prévision valable du 11 à 15 UTC au 11 à 24 UTC
Vent 10 kt de nord/nord-ouest
Visibilité 10 km ou plus
pas de nuages en-dessous de 1500 mètres et pas de cumulonimbus.
Probabilité 30% :
Temporairement
du 11 à 15 UTC au 11 à 16 UTC
Vent 15 kt de nord/nord-ouest avec des rafales jusqu'à 25 kt

TAF: LFRG 111400Z 1115/1124 34010KT CAVOK PROB30 TEMPO 1115/1116 34015G25KT

Observations et prévisions météorologiques de plus de 4000 aéroports (messages METAR et TAF).

Les stations disponibles sont représentées par des disques jaunes et rouges sur la carte.

Passer la souris dessus pour voir le nom de la station.

Cliquer dessus pour voir les observations et prévisions météorologiques.

Pour changer de carte: cliquez sur les boutons verts avec une croix noire pour zoomer, sur le bouton vert avec un tiret pour effectuer un zoom arrière, ou sur les flèches vertes pour les cartes adjacentes.


METAR-TAF: